createdAt,value
2018-06-02T00:04:29.641Z,18.10
2018-06-02T00:09:12.965Z,18.10
2018-06-02T00:13:56.357Z,18.10
2018-06-02T00:18:39.686Z,18.00
2018-06-02T00:23:23.057Z,17.90
2018-06-02T00:28:06.381Z,18.00
2018-06-02T00:32:50.076Z,17.90
2018-06-02T00:37:33.383Z,17.90
2018-06-02T00:42:16.759Z,17.90
2018-06-02T00:47:00.880Z,17.80
2018-06-02T00:51:44.215Z,17.80
2018-06-02T00:56:27.581Z,17.80
2018-06-02T01:01:10.842Z,17.80
2018-06-02T01:05:54.210Z,17.80
2018-06-02T01:10:38.325Z,17.90
2018-06-02T01:15:22.423Z,17.80
2018-06-02T01:20:05.778Z,17.80
2018-06-02T01:24:49.099Z,17.80
2018-06-02T01:29:32.463Z,17.80
2018-06-02T01:34:15.808Z,17.80
2018-06-02T01:38:59.237Z,17.80
2018-06-02T01:43:42.557Z,17.70
2018-06-02T01:48:25.999Z,17.70
2018-06-02T01:53:10.120Z,17.70
2018-06-02T01:57:53.438Z,17.70
2018-06-02T02:02:36.763Z,17.70
2018-06-02T02:07:20.070Z,17.70
2018-06-02T02:12:03.388Z,17.70
2018-06-02T02:16:46.707Z,17.70
2018-06-02T02:21:30.811Z,17.70
2018-06-02T02:26:15.045Z,17.70
2018-06-02T02:30:59.144Z,17.70
2018-06-02T02:35:42.477Z,17.70
2018-06-02T02:40:26.541Z,17.60
2018-06-02T02:45:09.919Z,17.60
2018-06-02T02:49:53.279Z,17.50
2018-06-02T02:54:36.661Z,17.50
2018-06-02T02:59:19.995Z,17.40
2018-06-02T03:04:03.354Z,17.40
2018-06-02T03:08:46.864Z,17.40
2018-06-02T03:13:30.386Z,17.40
2018-06-02T03:18:13.830Z,17.40
2018-06-02T03:22:57.173Z,17.40
2018-06-02T03:27:40.744Z,17.50
2018-06-02T03:32:24.136Z,17.50
2018-06-02T03:37:07.542Z,17.50
2018-06-02T03:41:51.658Z,17.60
2018-06-02T03:46:34.936Z,17.60
2018-06-02T03:51:18.289Z,17.60
2018-06-02T03:56:01.628Z,17.70
2018-06-02T04:00:45.016Z,18.20
2018-06-02T04:05:28.525Z,18.30
2018-06-02T04:10:12.779Z,18.10
2018-06-02T04:14:56.139Z,18.00
2018-06-02T04:19:39.448Z,18.00
2018-06-02T04:24:22.764Z,18.00
2018-06-02T04:29:06.854Z,18.10
2018-06-02T04:33:50.224Z,18.10
2018-06-02T04:38:33.572Z,18.10
2018-06-02T04:43:16.939Z,18.20
2018-06-02T04:48:00.320Z,18.30
2018-06-02T04:52:43.666Z,18.30
2018-06-02T04:57:26.984Z,18.40
2018-06-02T05:02:10.338Z,18.60
2018-06-02T05:06:54.395Z,18.70
2018-06-02T05:11:37.803Z,18.60
2018-06-02T05:16:22.097Z,19.00
2018-06-02T05:21:05.529Z,18.90
2018-06-02T05:25:49.608Z,19.10
2018-06-02T05:30:32.944Z,19.10
2018-06-02T05:35:16.364Z,19.10
2018-06-02T05:40:03.813Z,19.20
2018-06-02T05:44:47.121Z,19.20
2018-06-02T05:49:31.365Z,19.30
2018-06-02T05:54:14.697Z,19.30
2018-06-02T05:58:58.071Z,19.70
2018-06-02T06:03:42.189Z,20.60
2018-06-02T06:08:25.552Z,20.60
2018-06-02T06:13:08.999Z,20.70
2018-06-02T06:17:52.355Z,21.00
2018-06-02T06:22:35.781Z,21.30
2018-06-02T06:27:19.140Z,21.30
2018-06-02T06:32:03.243Z,20.90
2018-06-02T06:36:47.170Z,20.80
2018-06-02T06:41:30.505Z,21.40
2018-06-02T06:46:13.867Z,21.30
2018-06-02T06:50:57.219Z,21.10
2018-06-02T06:55:40.559Z,20.60
2018-06-02T07:00:23.972Z,20.80
2018-06-02T07:05:08.072Z,20.80
2018-06-02T07:09:51.366Z,20.80
2018-06-02T07:14:35.463Z,21.90
2018-06-02T07:19:18.862Z,21.90
2018-06-02T07:24:02.170Z,22.30
2018-06-02T07:28:45.495Z,22.50
2018-06-02T07:33:28.765Z,22.20
2018-06-02T07:38:12.130Z,21.80
2018-06-02T07:42:56.319Z,22.60
2018-06-02T07:47:39.737Z,22.50
2018-06-02T07:52:23.119Z,22.10
2018-06-02T07:57:06.471Z,22.30
2018-06-02T08:01:49.819Z,22.60
2018-06-02T08:06:33.239Z,22.50
2018-06-02T08:11:16.536Z,22.70
2018-06-02T08:16:00.620Z,23.20
2018-06-02T08:20:44.725Z,23.20
2018-06-02T08:25:28.808Z,23.20
2018-06-02T08:30:12.154Z,23.20
2018-06-02T08:34:55.523Z,23.50
2018-06-02T08:39:39.386Z,22.90
2018-06-02T08:44:22.715Z,22.60
2018-06-02T08:49:06.096Z,22.30
2018-06-02T08:53:49.448Z,22.60
2018-06-02T08:58:32.927Z,23.10
2018-06-02T09:03:16.348Z,23.00
2018-06-02T09:08:00.467Z,23.60
2018-06-02T09:12:43.809Z,23.60
2018-06-02T09:17:27.113Z,23.50
2018-06-02T09:22:10.422Z,23.10
2018-06-02T09:26:53.898Z,22.30
2018-06-02T09:31:37.250Z,22.30
2018-06-02T09:36:20.634Z,22.20
2018-06-02T09:41:04.000Z,22.50
2018-06-02T09:45:48.083Z,22.90
2018-06-02T09:50:31.392Z,22.90
2018-06-02T09:55:14.992Z,23.20
2018-06-02T09:59:58.326Z,24.00
2018-06-02T10:04:41.711Z,23.20
2018-06-02T10:09:25.078Z,22.40
2018-06-02T10:14:09.177Z,22.40
2018-06-02T10:18:52.509Z,22.40
2018-06-02T10:23:35.872Z,22.50
2018-06-02T10:28:20.003Z,23.20
2018-06-02T10:33:03.407Z,23.20
2018-06-02T10:37:47.553Z,24.20
2018-06-02T10:42:31.025Z,24.10
2018-06-02T10:47:14.360Z,25.30
2018-06-02T10:51:57.740Z,24.70
2018-06-02T10:56:41.075Z,24.50
2018-06-02T11:01:24.476Z,23.50
2018-06-02T11:06:07.784Z,22.70
2018-06-02T11:10:51.968Z,21.80
2018-06-02T11:15:35.314Z,21.80
2018-06-02T11:20:18.719Z,21.60
2018-06-02T11:25:02.137Z,21.90
2018-06-02T11:29:45.503Z,22.10
2018-06-02T11:34:28.959Z,22.50
2018-06-02T11:39:14.270Z,23.50
2018-06-02T11:43:58.562Z,23.50
2018-06-02T11:48:41.989Z,23.60
2018-06-02T11:53:27.186Z,23.60
2018-06-02T11:58:10.861Z,24.00
2018-06-02T12:02:57.965Z,22.70
2018-06-02T12:07:41.789Z,22.70
2018-06-02T12:12:25.835Z,22.80
2018-06-02T12:17:09.178Z,23.40
2018-06-02T12:21:53.356Z,24.10
2018-06-02T12:26:38.098Z,24.10
2018-06-02T12:31:22.577Z,24.60
2018-06-02T12:36:07.037Z,24.30
2018-06-02T12:40:53.400Z,24.50
2018-06-02T12:45:36.744Z,24.30
2018-06-02T12:50:20.400Z,24.40
2018-06-02T12:55:05.441Z,24.50
2018-06-02T12:59:49.748Z,24.40
2018-06-02T13:04:33.178Z,24.20
2018-06-02T13:09:16.580Z,25.00
2018-06-02T13:14:00.174Z,25.10
2018-06-02T13:18:44.941Z,25.10
2018-06-02T13:23:31.708Z,24.70
2018-06-02T13:28:15.780Z,24.70
2018-06-02T13:32:59.539Z,25.10
2018-06-02T13:37:42.920Z,25.10
2018-06-02T13:42:27.374Z,24.70
2018-06-02T13:47:12.773Z,24.30
2018-06-02T13:51:56.105Z,24.30
2018-06-02T13:56:39.565Z,24.60
2018-06-02T14:01:30.809Z,24.40
2018-06-02T14:06:24.164Z,24.40
2018-06-02T14:11:09.346Z,24.80
2018-06-02T14:15:53.692Z,24.80
2018-06-02T14:20:38.068Z,25.90
2018-06-02T14:25:21.562Z,25.90
2018-06-02T14:30:06.505Z,26.60
2018-06-02T14:35:07.676Z,26.60
2018-06-02T14:44:57.905Z,25.20
2018-06-02T14:49:42.221Z,25.10
2018-06-02T14:54:26.404Z,25.60
2018-06-02T14:59:09.753Z,25.50
2018-06-02T15:03:53.177Z,25.60
2018-06-02T15:08:37.341Z,24.60
2018-06-02T15:13:20.727Z,24.60
2018-06-02T15:18:04.272Z,24.60
2018-06-02T15:22:47.857Z,24.70
2018-06-02T15:27:31.664Z,25.30
2018-06-02T15:32:16.380Z,25.90
2018-06-02T15:36:59.781Z,25.90
2018-06-02T15:46:37.984Z,25.20
2018-06-02T15:51:21.330Z,25.90
2018-06-02T15:56:05.582Z,26.40
2018-06-02T16:00:48.913Z,26.30
2018-06-02T16:05:32.254Z,26.10
2018-06-02T16:10:16.362Z,26.00
2018-06-02T16:15:00.520Z,25.10
2018-06-02T16:19:44.750Z,24.40
2018-06-02T16:24:28.336Z,24.40
2018-06-02T16:29:12.524Z,25.30
2018-06-02T16:33:56.651Z,25.60
2018-06-02T16:38:40.805Z,24.50
2018-06-02T16:43:24.175Z,24.50
2018-06-02T16:48:08.332Z,24.90
2018-06-02T16:52:51.752Z,24.90
2018-06-02T16:57:35.229Z,25.30
2018-06-02T17:02:18.553Z,25.60
2018-06-02T17:07:01.894Z,25.20
2018-06-02T17:11:46.099Z,23.60
2018-06-02T17:16:29.516Z,23.50
2018-06-02T17:21:12.895Z,23.40
2018-06-02T17:25:56.323Z,23.40
2018-06-02T17:30:39.671Z,22.90
2018-06-02T17:35:23.087Z,22.20
2018-06-02T17:40:06.413Z,21.90
2018-06-02T17:44:49.991Z,21.70
2018-06-02T17:49:33.524Z,21.80
2018-06-02T17:54:17.688Z,22.00
2018-06-02T17:59:01.045Z,22.10
2018-06-02T18:03:44.396Z,21.90
2018-06-02T18:08:28.561Z,21.70
2018-06-02T18:13:12.010Z,21.60
2018-06-02T18:17:58.624Z,21.40
2018-06-02T18:22:51.957Z,21.30
2018-06-02T18:27:35.365Z,21.10
2018-06-02T18:32:31.095Z,20.80
2018-06-02T18:43:44.595Z,19.90
2018-06-02T18:48:30.025Z,19.90
2018-06-02T18:53:17.014Z,19.70
2018-06-02T18:58:01.056Z,19.40
2018-06-02T19:02:45.190Z,18.80
2018-06-02T19:07:28.769Z,18.80
2018-06-02T19:12:12.049Z,18.70
2018-06-02T19:16:55.391Z,18.80
2018-06-02T19:21:38.734Z,18.70
2018-06-02T19:26:22.157Z,18.60
2018-06-02T19:31:06.827Z,18.40
2018-06-02T19:35:50.761Z,18.20
2018-06-02T19:40:35.585Z,18.20
2018-06-02T19:45:19.768Z,18.30
2018-06-02T19:50:05.428Z,18.50
2018-06-02T19:54:48.929Z,18.50
2018-06-02T19:59:34.508Z,18.60
2018-06-02T20:09:28.858Z,18.50
2018-06-02T20:19:28.666Z,18.50
2018-06-02T20:24:12.004Z,18.30
2018-06-02T20:28:55.470Z,18.30
2018-06-02T20:33:39.595Z,18.30
2018-06-02T20:38:22.932Z,18.30
2018-06-02T20:43:06.414Z,18.40
2018-06-02T20:47:49.802Z,18.30
2018-06-02T20:52:33.425Z,18.40
2018-06-02T20:57:16.772Z,18.40
2018-06-02T21:02:00.347Z,18.40
2018-06-02T21:06:43.738Z,18.40
2018-06-02T21:11:27.101Z,18.40
2018-06-02T21:16:10.472Z,18.50
2018-06-02T21:20:53.883Z,18.50
2018-06-02T21:25:37.247Z,18.50
2018-06-02T21:30:20.627Z,18.50
2018-06-02T21:35:04.843Z,18.40
2018-06-02T21:39:48.319Z,18.40
2018-06-02T21:44:31.740Z,18.40
2018-06-02T21:49:15.094Z,18.40
2018-06-02T21:53:58.478Z,18.50
2018-06-02T21:58:41.866Z,18.40
2018-06-02T22:03:25.274Z,18.30
2018-06-02T22:08:08.669Z,18.20
2018-06-02T22:12:52.093Z,18.10
2018-06-02T22:17:35.379Z,18.20
2018-06-02T22:22:18.822Z,18.10
2018-06-02T22:27:02.914Z,17.60
2018-06-02T22:31:46.292Z,17.50
2018-06-02T22:36:29.641Z,17.30
2018-06-02T22:41:13.752Z,17.00
2018-06-02T22:45:57.043Z,17.00
2018-06-02T22:50:41.206Z,16.80
2018-06-02T22:55:25.332Z,16.80
2018-06-02T23:00:08.790Z,16.80
2018-06-02T23:04:51.915Z,16.90
2018-06-02T23:09:35.008Z,16.70
2018-06-02T23:14:18.191Z,16.60
2018-06-02T23:19:01.258Z,16.60
2018-06-02T23:23:44.441Z,16.50
2018-06-02T23:28:28.358Z,16.60
2018-06-02T23:33:11.468Z,16.50
2018-06-02T23:37:54.636Z,16.50
2018-06-02T23:42:37.750Z,16.50
2018-06-02T23:47:20.831Z,16.60
2018-06-02T23:52:03.902Z,16.50
2018-06-02T23:56:47.004Z,16.50
